Gamaliel, AR

4:22 PM CDT on May 04, 2015 (GMT -0500)
Boone County | | Change Station
CLOSE
Current Station
Airport
Location: Harrison,
Elevation: 1365 ft
Nearby Weather Stations

Elev 1365 ft 36.26 °N, 93.15 °W | Updated 29 minutes ago

Partly Cloudy
Partly Cloudy
79 °F
Feels Like 79 °F
N
9
Wind Variable Wind from SSE
Gusts 18 mph

Today
High -- | Low -- °F
--% Chance of Precip.
Yesterday
High -- | Low -- °F
Precip. -- in
6:13 AM 8:00 PM
Waxing Gibbous, 99% visible
Pressure 30.09 in
Visibility 10.0 miles
Clouds Few 6000 ft
Scattered Clouds 7000 ft
Dew Point 56 °F
Humidity 45%
Rainfall 0.00 in
Snow Depth Not available.
UV 6 out of 12
Pollen 10.70 out of 12
Air Quality Not available.
Flu Activity No Activity
METAR KHRO 042053Z AUTO 16008G16KT 10SM FEW060 SCT070 26/13 A3013 RMK AO2 SLP190 T02610133 56010

More Conditions Fewer Conditions

Pressure 30.09 in
Visibility 10.0 miles
Clouds Few 6000 ft
Scattered Clouds 7000 ft
Dew Point 56 °F
Humidity 45%
Rainfall 0.00 in
Snow Depth Not available.
UV 6 out of 12
Pollen 10.70 out of 12
Air Quality Not available.
Flu Activity No Activity
METAR KHRO 042053Z AUTO 16008G16KT 10SM FEW060 SCT070 26/13 A3013 RMK AO2 SLP190 T02610133 56010

More Conditions Fewer Conditions

Nepal has a long way to go to dig out and rebuild from a devastating earthquake. We have teamed up with several charities and organizations to make contributing to the relief effort as easy as possible.
How you can help: Portlight Strategies | Red Cross

10-Day Weather Forecast

Almanac

Astronomy

May. 04, 2015 Rise Set
Actual Time
Civil Twilight
Nautical Twilight
Astronomical Twilight
Moon
Length of Visible Light
Length of Day
Tomorrow will be .
, % of the Moon is Illuminated

Today's Extremes

State Highs State Lows

Community

WunderPhotos

Upload Photos

1,818,703 photos uploaded!

WunderBlogs® & News

Nearby

Air Quality

  Air Quality AQ Index Pollutant
Not available.

Snow Depth

Station Depth Elevation

Earthquake Activity

City Distance Mag. Time & Date
Minimum magnitude displayed is 2.5.

Coastal Water Temperatures

Place Temperature

Stations

Nearby Weather Stations

Station Location Temp. Windchill Dew Point Humidity Wind Precip. Elev Updated Type